Nearby METAR Reports

 

EGNR - Hawarden (aut), United Kingdom
Distance from station: ESE 33mi, 53km
Updated: 15/11/2019 20:50
NOT Current
Few Clouds
Few Clouds
 Wind from NNW
Wind: NNW 9 mph , 15 km/h
Temperature: 6°C
Wind Chill: 3°C
Dew Point: 4°C
Humidity: 87%
Barometer: 1009 hPa
Clouds: Few Clouds
Visibility: 6 miles , 10 km
Cloud details: Few Clouds 1219 m
2019/11/15 20:50 EGNR 152050Z 34008KT 9999 FEW040 06/04 Q1009
EGOV - Valley Raf, United Kingdom
Distance from station: W 33mi, 53km
Updated: 15/11/2019 22:50
Mostly cloudy
Mostly cloudy
 Wind from N
Wind: N 15 mph , 24 km/h
Temperature: 8°C
Wind Chill: 4°C
Dew Point: 5°C
Humidity: 82%
Barometer: 1010 hPa
Clouds: Mostly cloudy
Visibility: 6 miles , 10 km
Cloud details: Few Clouds 732 m
Partly cloudy 914 m
Mostly cloudy 1250 m
2019/11/15 22:50 EGOV 152250Z AUTO 36013KT 9999 FEW024/// SCT030/// BKN041/// 08/05 Q1010
 
EGGP - Liverpool Airpor, United Kingdom
Distance from station: E 37mi, 59km
Updated: 15/11/2019 23:20
Few Clouds
Few Clouds
 Wind from NNW
Wind: NNW 10 mph , 17 km/h
Temperature: 7°C
Wind Chill: 4°C
Dew Point: 5°C
Humidity: 87%
Barometer: 1008 hPa
Clouds: Few Clouds
Visibility: 6 miles , 10 km
Cloud details: Few Clouds 1280 m
2019/11/15 23:20 EGGP 152320Z 34009KT 9999 FEW042 07/05 Q1008
EGNH - Blackpool Airpor, United Kingdom
Distance from station: NE 44mi, 72km
Updated: 15/11/2019 20:50
NOT Current
Partly cloudy
Partly cloudy
 Wind from NNE
Wind: NNE 12 mph , 19 km/h
Temperature: 8°C
Wind Chill: 4°C
Dew Point: 4°C
Humidity: 76%
Barometer: 1010 hPa
Clouds: Partly cloudy
Visibility: 6 miles , 10 km
Cloud details: Few Clouds 579 m
Partly cloudy 945 m
2019/11/15 20:50 EGNH 152050Z 02010KT 9999 FEW019 SCT031 08/04 Q1010
 
EGNO - Wharton, United Kingdom
Distance from station: NE 47mi, 76km
Updated: 15/11/2019 16:50
NOT Current
Few Clouds
Few Clouds
 Wind from NNE
Wind: NNE 7 mph , 11 km/h
Temperature: 8°C
Wind Chill: 6°C
Dew Point: 4°C
Humidity: 76%
Barometer: 1010 hPa
Clouds: Few Clouds
Visibility: 6 miles , 10 km
Cloud details: Few Clouds 1341 m
2019/11/15 16:50 EGNO 151650Z 02006KT 9999 FEW044 08/04 Q1010
EGOS - Shawbury Raf, United Kingdom
Distance from station: SE 56mi, 89km
Updated: 15/11/2019 22:50
Mostly cloudy
Mostly cloudy
 Wind from NNW
Wind: NNW 14 mph , 22 km/h
Temperature: 6°C
Wind Chill: 2°C
Dew Point: 4°C
Humidity: 87%
Barometer: 1006 hPa
Clouds: Mostly cloudy
Visibility: 6 miles , 10 km
Cloud details: Partly cloudy 762 m
Mostly cloudy 1829 m
2019/11/15 22:50 EGOS 152250Z AUTO 34012KT 9999 SCT025/// BKN060/// 06/04 Q1006
 
EGCC - Manchester Intl, United Kingdom
Distance from station: E 61mi, 98km
Updated: 15/11/2019 23:20
Mostly cloudy
Mostly cloudy
 Wind from N
Wind: N 14 mph , 22 km/h
Temperature: 7°C
Wind Chill: 4°C
Dew Point: 4°C
Humidity: 81%
Barometer: 1007 hPa
Clouds: Mostly cloudy
Visibility: 6 miles , 10 km
Cloud details: Mostly cloudy 640 m
2019/11/15 23:20 EGCC 152320Z AUTO 01012KT 9999 BKN021 07/04 Q1007 NOSIG
EGNS - Isle Of Man/Rona, United Kingdom
Distance from station: NW 66mi, 107km
Updated: 15/11/2019 22:50
Mostly cloudy
Mostly cloudy
 Wind from N
Wind: N 12 mph , 19 km/h
Temperature: 7°C
Wind Chill: 4°C
Dew Point: 4°C
Humidity: 81%
Barometer: 1012 hPa
Clouds: Mostly cloudy
Visibility: 6 miles , 10 km
Cloud details: Few Clouds 975 m
Mostly cloudy 1219 m
2019/11/15 22:50 EGNS 152250Z 36010KT 320V040 9999 FEW032 BKN040 07/04 Q1012
 
EGNM - Leeds And Bradfo, United Kingdom
Distance from station: ENE 95mi, 153km
Updated: 15/11/2019 23:20
Mostly cloudy
Mostly cloudy
 Wind from NNE
Wind: NNE 8 mph , 13 km/h
Temperature: 6°C
Wind Chill: 3°C
Dew Point: 4°C
Humidity: 87%
Barometer: 1007 hPa
Clouds: Mostly cloudy
Visibility: 6 miles , 10 km
Cloud details: Few Clouds 488 m
Mostly cloudy 610 m
2019/11/15 23:20 EGNM 152320Z 02007KT 350V060 9999 FEW016 BKN020 06/04 Q1007
EGBB - Birmingham Airpo, United Kingdom
Distance from station: ESE 100mi, 161km
Updated: 15/11/2019 23:20
Heavy rain, Overcast
Heavy rain, Overcast
 Wind from NNE
Wind: NNE 10 mph , 17 km/h
Temperature: 6°C
Wind Chill: 3°C
Dew Point: 5°C
Humidity: 93%
Barometer: 1005 hPa
Summary: Heavy rain
Clouds: Overcast
Visibility: 1 mile , 2 km
Cloud details: Mostly cloudy 183 m
Overcast 274 m
2019/11/15 23:20 EGBB 152320Z AUTO 03009KT 1600 +RA BKN006/// OVC009/// 06/05 Q1005